createdAt,value
2022-11-24T00:00:14.698Z,0
2022-11-24T00:01:14.864Z,0
2022-11-24T00:02:15.120Z,0
2022-11-24T00:03:15.802Z,0
2022-11-24T00:04:16.229Z,0
2022-11-24T00:05:16.385Z,0
2022-11-24T00:06:16.535Z,0
2022-11-24T00:07:16.708Z,0
2022-11-24T00:08:17.051Z,0
2022-11-24T00:09:17.209Z,0
2022-11-24T00:10:17.374Z,0
2022-11-24T00:11:17.534Z,0
2022-11-24T00:12:17.695Z,0
2022-11-24T00:13:17.858Z,0
2022-11-24T00:14:18.022Z,0
2022-11-24T00:15:18.178Z,0
2022-11-24T00:16:18.382Z,0
2022-11-24T00:17:18.835Z,0
2022-11-24T00:18:18.997Z,0
2022-11-24T00:19:19.830Z,0
2022-11-24T00:20:20.253Z,0
2022-11-24T00:21:20.430Z,0
2022-11-24T00:22:20.599Z,0
2022-11-24T00:23:20.755Z,0
2022-11-24T00:24:20.916Z,0
2022-11-24T00:25:21.074Z,0
2022-11-24T00:26:21.228Z,0
2022-11-24T00:27:21.387Z,0
2022-11-24T00:28:21.545Z,0
2022-11-24T00:29:21.726Z,0
2022-11-24T00:30:21.888Z,0
2022-11-24T00:31:22.233Z,0
2022-11-24T00:32:22.719Z,0
2022-11-24T00:33:22.874Z,0
2022-11-24T00:34:23.027Z,0
2022-11-24T00:35:23.189Z,0
2022-11-24T00:36:23.347Z,0
2022-11-24T00:37:23.509Z,0
2022-11-24T00:38:23.670Z,0
2022-11-24T00:39:23.845Z,0
2022-11-24T00:40:24.002Z,0
2022-11-24T00:41:24.166Z,0
2022-11-24T00:42:24.329Z,0
2022-11-24T00:43:24.485Z,0
2022-11-24T00:44:24.642Z,0
2022-11-24T00:45:24.798Z,0
2022-11-24T00:46:25.135Z,0
2022-11-24T00:47:25.808Z,0
2022-11-24T00:48:26.164Z,0
2022-11-24T00:49:26.326Z,0
2022-11-24T00:50:26.488Z,0
2022-11-24T00:51:26.642Z,0
2022-11-24T00:52:26.796Z,0
2022-11-24T00:53:26.966Z,0
2022-11-24T00:54:27.131Z,0
2022-11-24T00:55:27.287Z,0
2022-11-24T00:56:27.443Z,0
2022-11-24T00:57:27.650Z,0
2022-11-24T00:58:27.806Z,0
2022-11-24T00:59:27.960Z,0
2022-11-24T01:00:28.124Z,0
2022-11-24T01:01:28.392Z,0
2022-11-24T01:02:29.042Z,0
2022-11-24T01:03:29.359Z,0
2022-11-24T01:04:29.521Z,0
2022-11-24T01:05:29.682Z,0
2022-11-24T01:06:29.851Z,0
2022-11-24T01:07:30.064Z,0
2022-11-24T01:08:30.456Z,0
2022-11-24T01:09:30.611Z,0
2022-11-24T01:10:30.770Z,0
2022-11-24T01:11:30.925Z,0
2022-11-24T01:12:31.081Z,0
2022-11-24T01:13:31.242Z,0
2022-11-24T01:14:31.786Z,0
2022-11-24T01:15:33.379Z,0
2022-11-24T01:16:33.659Z,0
2022-11-24T01:17:33.816Z,0
2022-11-24T01:18:33.972Z,0
2022-11-24T01:19:34.128Z,0
2022-11-24T01:20:34.293Z,0
2022-11-24T01:21:34.450Z,0
2022-11-24T01:22:34.610Z,0
2022-11-24T01:23:34.774Z,0
2022-11-24T01:24:35.243Z,0
2022-11-24T01:25:36.388Z,0
2022-11-24T01:26:36.550Z,0
2022-11-24T01:27:36.708Z,0
2022-11-24T01:28:38.540Z,0
2022-11-24T01:29:47.965Z,0
2022-11-24T01:30:48.200Z,0
2022-11-24T01:31:48.461Z,0
2022-11-24T01:32:48.621Z,0
2022-11-24T01:33:48.774Z,0
2022-11-24T01:34:48.940Z,0
2022-11-24T01:35:49.099Z,0
2022-11-24T01:36:49.259Z,0
2022-11-24T01:37:49.415Z,0
2022-11-24T01:38:49.590Z,0
2022-11-24T01:39:49.759Z,0
2022-11-24T01:40:49.916Z,0
2022-11-24T01:41:50.071Z,0
2022-11-24T01:42:50.229Z,0
2022-11-24T01:43:50.400Z,0
2022-11-24T01:44:50.552Z,0
2022-11-24T01:45:50.766Z,0
2022-11-24T01:46:51.104Z,0
2022-11-24T01:47:51.259Z,0
2022-11-24T01:48:51.767Z,0
2022-11-24T01:49:51.929Z,0
2022-11-24T01:50:52.088Z,0
2022-11-24T01:51:52.243Z,0
2022-11-24T01:52:52.396Z,0
2022-11-24T01:53:52.555Z,0
2022-11-24T01:54:52.713Z,0
2022-11-24T01:55:52.873Z,0
2022-11-24T01:56:53.034Z,0
2022-11-24T01:57:53.197Z,0
2022-11-24T01:58:53.357Z,0
2022-11-24T01:59:53.518Z,0
2022-11-24T02:00:53.688Z,0
2022-11-24T02:01:53.885Z,0
2022-11-24T02:02:54.342Z,0
2022-11-24T02:03:54.672Z,0
2022-11-24T02:04:54.830Z,0
2022-11-24T02:05:54.986Z,0
2022-11-24T02:06:55.158Z,0
2022-11-24T02:07:55.390Z,0
2022-11-24T02:08:55.775Z,0
2022-11-24T02:09:55.936Z,0
2022-11-24T02:10:56.096Z,0
2022-11-24T02:11:56.272Z,0
2022-11-24T02:12:56.437Z,0
2022-11-24T02:13:56.599Z,0
2022-11-24T02:14:56.753Z,0
2022-11-24T02:15:56.954Z,0
2022-11-24T02:16:57.339Z,0
2022-11-24T02:17:57.494Z,0
2022-11-24T02:18:57.656Z,0
2022-11-24T02:19:57.818Z,0
2022-11-24T02:20:57.984Z,0
2022-11-24T02:21:58.144Z,0
2022-11-24T02:22:58.331Z,0
2022-11-24T02:23:58.485Z,0
2022-11-24T02:24:58.644Z,0
2022-11-24T02:25:58.804Z,0
2022-11-24T02:26:59.074Z,0
2022-11-24T02:27:59.251Z,0
2022-11-24T02:28:59.442Z,0
2022-11-24T02:29:59.596Z,0
2022-11-24T02:30:59.794Z,0
2022-11-24T02:32:00.350Z,0
2022-11-24T02:33:00.520Z,0
2022-11-24T02:34:00.677Z,0
2022-11-24T02:35:00.837Z,0
2022-11-24T02:36:00.992Z,0
2022-11-24T02:37:01.153Z,0
2022-11-24T02:38:01.314Z,0
2022-11-24T02:39:01.468Z,0
2022-11-24T02:40:01.624Z,0
2022-11-24T02:41:01.780Z,0
2022-11-24T02:42:01.944Z,0
2022-11-24T02:43:02.144Z,0
2022-11-24T02:44:02.309Z,0
2022-11-24T02:45:02.492Z,0
2022-11-24T02:46:02.715Z,0
2022-11-24T02:47:03.075Z,0
2022-11-24T02:48:03.250Z,0
2022-11-24T02:49:03.403Z,0
2022-11-24T02:50:03.576Z,0
2022-11-24T02:51:03.734Z,0
2022-11-24T02:52:03.893Z,0
2022-11-24T02:53:04.058Z,0
2022-11-24T02:54:04.215Z,0
2022-11-24T02:55:04.375Z,0
2022-11-24T02:56:04.526Z,0
2022-11-24T02:57:04.679Z,0
2022-11-24T02:58:04.833Z,0
2022-11-24T02:59:04.991Z,0
2022-11-24T03:00:05.152Z,0
2022-11-24T03:01:05.372Z,0
2022-11-24T03:02:05.808Z,0
2022-11-24T03:03:06.237Z,0
2022-11-24T03:04:06.579Z,0
2022-11-24T03:05:06.738Z,0
2022-11-24T03:06:06.890Z,0
2022-11-24T03:07:07.105Z,0
2022-11-24T03:08:07.452Z,0
2022-11-24T03:09:07.612Z,0
2022-11-24T03:10:07.769Z,0
2022-11-24T03:11:07.934Z,0
2022-11-24T03:12:08.088Z,0
2022-11-24T03:13:08.252Z,0
2022-11-24T03:14:08.409Z,0
2022-11-24T03:15:08.569Z,0
2022-11-24T03:16:08.768Z,0
2022-11-24T03:17:09.098Z,0
2022-11-24T03:18:09.263Z,0
2022-11-24T03:19:09.420Z,0
2022-11-24T03:20:09.599Z,0
2022-11-24T03:21:09.751Z,0
2022-11-24T03:22:09.907Z,0
2022-11-24T03:23:10.066Z,0
2022-11-24T03:24:10.221Z,0
2022-11-24T03:25:10.378Z,0
2022-11-24T03:26:10.552Z,0
2022-11-24T03:27:10.727Z,0
2022-11-24T03:28:10.886Z,0
2022-11-24T03:29:11.046Z,0
2022-11-24T03:30:11.215Z,0
2022-11-24T03:31:11.531Z,0
2022-11-24T03:32:11.847Z,0
2022-11-24T03:33:12.000Z,0
2022-11-24T03:34:12.159Z,0
2022-11-24T03:35:12.336Z,0
2022-11-24T03:36:12.506Z,0
2022-11-24T03:37:12.663Z,0
2022-11-24T03:38:12.831Z,0
2022-11-24T03:39:12.993Z,0
2022-11-24T03:40:13.156Z,0
2022-11-24T03:41:13.316Z,0
2022-11-24T03:42:13.473Z,0
2022-11-24T03:43:13.633Z,0
2022-11-24T03:44:13.791Z,0
2022-11-24T03:45:38.403Z,0
2022-11-24T03:46:47.063Z,0
2022-11-24T03:47:47.520Z,0
2022-11-24T03:48:47.679Z,0
2022-11-24T03:49:47.845Z,0
2022-11-24T03:50:48.001Z,0
2022-11-24T03:51:48.214Z,0
2022-11-24T03:52:48.372Z,0
2022-11-24T03:53:48.537Z,0
2022-11-24T03:54:48.690Z,0
2022-11-24T03:55:48.849Z,0
2022-11-24T03:56:49.003Z,0
2022-11-24T03:57:49.156Z,0
2022-11-24T03:58:49.319Z,0
2022-11-24T03:59:49.477Z,0
2022-11-24T04:00:49.638Z,0
2022-11-24T04:01:49.843Z,0
2022-11-24T04:02:50.283Z,0
2022-11-24T04:03:50.693Z,0
2022-11-24T04:04:50.846Z,0
2022-11-24T04:05:51.002Z,0
2022-11-24T04:06:51.176Z,0
2022-11-24T04:07:51.391Z,0
2022-11-24T04:08:51.705Z,0
2022-11-24T04:09:51.879Z,0
2022-11-24T04:10:52.036Z,0
2022-11-24T04:11:52.206Z,0
2022-11-24T04:12:52.393Z,0
2022-11-24T04:13:52.554Z,0
2022-11-24T04:14:52.710Z,0
2022-11-24T04:15:52.967Z,0
2022-11-24T04:16:53.423Z,0
2022-11-24T04:17:53.579Z,0
2022-11-24T04:18:54.046Z,0
2022-11-24T04:19:54.203Z,0
2022-11-24T04:20:54.363Z,0
2022-11-24T04:21:54.520Z,0
2022-11-24T04:22:54.683Z,0
2022-11-24T04:23:54.838Z,0
2022-11-24T04:24:54.998Z,0
2022-11-24T04:25:55.159Z,0
2022-11-24T04:26:55.321Z,0
2022-11-24T04:27:55.478Z,0
2022-11-24T04:28:55.664Z,0
2022-11-24T04:29:55.824Z,0
2022-11-24T04:30:56.056Z,0
2022-11-24T04:31:56.385Z,0
2022-11-24T04:32:56.538Z,0
2022-11-24T04:33:56.692Z,0
2022-11-24T04:34:56.850Z,0
2022-11-24T04:35:57.009Z,0
2022-11-24T04:36:57.173Z,0
2022-11-24T04:37:57.333Z,0
2022-11-24T04:39:20.468Z,0
2022-11-24T04:40:29.145Z,0
2022-11-24T04:41:29.299Z,0
2022-11-24T04:42:29.458Z,0
2022-11-24T04:43:29.618Z,0
2022-11-24T04:44:29.778Z,0
2022-11-24T04:45:29.939Z,0
2022-11-24T04:46:30.142Z,0
2022-11-24T04:47:30.482Z,0
2022-11-24T04:48:30.639Z,0
2022-11-24T04:49:30.799Z,0
2022-11-24T04:50:30.951Z,0
2022-11-24T04:51:31.106Z,0
2022-11-24T04:52:31.265Z,0
2022-11-24T04:53:31.422Z,0
2022-11-24T04:54:32.010Z,0
2022-11-24T04:55:33.006Z,0
2022-11-24T04:56:33.163Z,0
2022-11-24T04:57:33.319Z,0
2022-11-24T04:58:33.493Z,0
2022-11-24T04:59:33.650Z,0
2022-11-24T05:00:33.810Z,0
2022-11-24T05:01:34.067Z,0
2022-11-24T05:02:34.402Z,0
2022-11-24T05:03:34.764Z,0
2022-11-24T05:04:35.082Z,0
2022-11-24T05:05:36.253Z,0
2022-11-24T05:06:36.449Z,0
2022-11-24T05:07:36.641Z,0
2022-11-24T05:08:37.063Z,0
2022-11-24T05:09:58.355Z,0
2022-11-24T05:11:00.011Z,0
2022-11-24T05:12:00.168Z,0
2022-11-24T05:13:00.300Z,0
2022-11-24T05:14:00.438Z,0
2022-11-24T05:15:00.591Z,0
2022-11-24T05:16:00.797Z,0
2022-11-24T05:17:01.042Z,0
2022-11-24T05:18:01.194Z,0
2022-11-24T05:19:01.352Z,0
2022-11-24T05:20:01.510Z,0
2022-11-24T05:21:01.702Z,0
2022-11-24T05:22:01.853Z,0
2022-11-24T05:23:02.006Z,0
2022-11-24T05:24:02.161Z,0
2022-11-24T05:25:02.315Z,0
2022-11-24T05:26:02.462Z,0
2022-11-24T05:27:02.633Z,0
2022-11-24T05:28:02.783Z,0
2022-11-24T05:29:02.939Z,0
2022-11-24T05:30:03.088Z,0
2022-11-24T05:31:03.311Z,0
2022-11-24T05:32:03.767Z,0
2022-11-24T05:33:03.920Z,0
2022-11-24T05:34:04.089Z,0
2022-11-24T05:35:04.245Z,0
2022-11-24T05:36:04.397Z,0
2022-11-24T05:37:04.566Z,0
2022-11-24T05:38:04.729Z,0
2022-11-24T05:39:04.890Z,0
2022-11-24T05:40:05.040Z,0
2022-11-24T05:41:05.192Z,0
2022-11-24T05:42:05.372Z,0
2022-11-24T05:43:05.526Z,0
2022-11-24T05:44:05.684Z,0
2022-11-24T05:45:05.841Z,0
2022-11-24T05:46:05.987Z,0
2022-11-24T05:47:06.150Z,0
2022-11-24T05:48:06.478Z,0
2022-11-24T05:49:06.633Z,0
2022-11-24T05:50:06.788Z,0
2022-11-24T05:51:09.359Z,0
2022-11-24T05:52:09.788Z,0
2022-11-24T05:53:09.959Z,0
2022-11-24T05:54:10.139Z,0
2022-11-24T05:55:10.301Z,0
2022-11-24T05:56:10.451Z,0
2022-11-24T05:57:10.601Z,0
2022-11-24T05:58:10.750Z,0
2022-11-24T05:59:10.904Z,0
2022-11-24T06:00:11.059Z,0
2022-11-24T06:01:11.210Z,0
2022-11-24T06:02:11.476Z,0
2022-11-24T06:03:12.160Z,0
2022-11-24T06:04:12.887Z,0
2022-11-24T06:05:13.038Z,0
2022-11-24T06:06:13.192Z,0
2022-11-24T06:07:13.394Z,0
2022-11-24T06:08:13.724Z,0
2022-11-24T06:09:13.874Z,0
2022-11-24T06:10:14.027Z,0
2022-11-24T06:11:14.185Z,0
2022-11-24T06:12:14.345Z,0
2022-11-24T06:13:14.541Z,0
2022-11-24T06:14:15.235Z,0
2022-11-24T06:15:15.387Z,0
2022-11-24T06:16:15.587Z,2
2022-11-24T06:17:16.096Z,3
2022-11-24T06:18:16.252Z,4
2022-11-24T06:19:16.406Z,5
2022-11-24T06:20:16.554Z,7
2022-11-24T06:21:16.706Z,9
2022-11-24T06:22:16.854Z,11
2022-11-24T06:23:17.007Z,13
2022-11-24T06:24:17.163Z,15
2022-11-24T06:25:17.321Z,17
2022-11-24T06:26:17.470Z,21
2022-11-24T06:27:17.626Z,24
2022-11-24T06:28:17.777Z,27
2022-11-24T06:29:17.927Z,30
2022-11-24T06:30:18.090Z,33
2022-11-24T06:31:18.263Z,37
2022-11-24T06:32:18.695Z,41
2022-11-24T06:33:18.866Z,46
2022-11-24T06:34:19.023Z,46
2022-11-24T06:35:19.176Z,51
2022-11-24T06:36:19.328Z,57
2022-11-24T06:37:19.476Z,57
2022-11-24T06:38:24.168Z,57
2022-11-24T06:39:24.646Z,63
2022-11-24T06:40:24.792Z,63
2022-11-24T06:41:24.945Z,63
2022-11-24T06:42:25.101Z,63
2022-11-24T06:43:25.248Z,63
2022-11-24T06:44:25.665Z,63
2022-11-24T06:45:25.866Z,63
2022-11-24T06:46:26.205Z,70
2022-11-24T06:47:26.371Z,70
2022-11-24T06:48:26.522Z,77
2022-11-24T06:49:26.679Z,77
2022-11-24T06:50:30.638Z,84.96
2022-11-24T06:51:34.049Z,94
2022-11-24T06:52:34.196Z,94
2022-11-24T06:53:34.354Z,110
2022-11-24T06:54:34.720Z,110
2022-11-24T06:55:35.481Z,130
2022-11-24T06:56:35.647Z,130
2022-11-24T06:57:35.901Z,150
2022-11-24T06:58:36.077Z,169.92
2022-11-24T06:59:36.238Z,169.92
2022-11-24T07:00:36.396Z,189.92
2022-11-24T07:01:36.597Z,209.92
2022-11-24T07:02:39.868Z,209.92
2022-11-24T07:03:46.455Z,229.92
2022-11-24T07:04:46.621Z,240
2022-11-24T07:05:46.781Z,269.92
2022-11-24T07:06:46.936Z,300
2022-11-24T07:07:47.113Z,300
2022-11-24T07:08:47.377Z,329.92
2022-11-24T07:09:47.527Z,329.92
2022-11-24T07:10:47.683Z,369.92
2022-11-24T07:11:47.849Z,409.92
2022-11-24T07:12:48.009Z,409.92
2022-11-24T07:13:48.162Z,459.84
2022-11-24T07:14:48.316Z,459.84
2022-11-24T07:15:48.467Z,459.84
2022-11-24T07:16:48.680Z,459.84
2022-11-24T07:17:49.059Z,509.76
2022-11-24T07:18:49.210Z,509.76
2022-11-24T07:19:49.366Z,509.76
2022-11-24T07:20:49.515Z,509.76
2022-11-24T07:21:49.674Z,509.76
2022-11-24T07:22:49.822Z,509.76
2022-11-24T07:23:49.977Z,569.92
2022-11-24T07:24:50.126Z,569.92
2022-11-24T07:25:50.289Z,569.92
2022-11-24T07:26:50.450Z,569.92
2022-11-24T07:27:50.609Z,629.76
2022-11-24T07:28:50.771Z,629.76
2022-11-24T07:29:50.950Z,629.76
2022-11-24T07:30:51.107Z,699.52
2022-11-24T07:31:51.336Z,699.52
2022-11-24T07:32:51.671Z,769.92
2022-11-24T07:33:51.863Z,769.92
2022-11-24T07:34:52.023Z,849.92
2022-11-24T07:35:52.169Z,849.92
2022-11-24T07:36:52.324Z,949.76
2022-11-24T07:37:52.522Z,949.76
2022-11-24T07:38:52.675Z,1059.84
2022-11-24T07:39:52.866Z,1179.52
2022-11-24T07:40:53.017Z,1299.84
2022-11-24T07:41:53.548Z,1459.2
2022-11-24T07:42:53.696Z,1619.2
2022-11-24T07:43:53.852Z,1619.2
2022-11-24T07:44:54.009Z,1799.68
2022-11-24T07:45:54.209Z,1999.36
2022-11-24T07:46:54.628Z,2199.04
2022-11-24T07:47:54.782Z,2419.2
2022-11-24T07:48:54.936Z,2677.76
2022-11-24T07:49:55.101Z,2997.76
2022-11-24T07:50:56.196Z,3338.24
2022-11-24T07:51:56.693Z,3719.68
2022-11-24T07:52:56.857Z,4119.04
2022-11-24T07:53:57.015Z,4119.04
2022-11-24T07:54:57.171Z,4559.36
2022-11-24T07:55:57.323Z,9077.76
2022-11-24T07:56:57.476Z,12390.4
2022-11-24T07:57:57.632Z,13998.08
2022-11-24T07:58:57.785Z,12595.2
2022-11-24T07:59:57.951Z,14192.64
2022-11-24T08:00:58.109Z,15994.88
2022-11-24T08:01:58.307Z,17592.32
2022-11-24T08:02:58.596Z,17592.32
2022-11-24T08:03:58.814Z,13793.28
2022-11-24T08:04:59.192Z,9656.32
2022-11-24T08:06:36.171Z,8417.28
2022-11-24T08:07:47.431Z,4559.36
2022-11-24T08:08:47.766Z,3520
2022-11-24T08:09:47.920Z,2579.2
2022-11-24T08:10:48.073Z,1999.36
2022-11-24T08:11:48.233Z,1519.36
2022-11-24T08:12:48.392Z,1159.68
2022-11-24T08:13:48.543Z,909.44
2022-11-24T08:14:48.693Z,709.76
2022-11-24T08:15:48.846Z,629.76
2022-11-24T08:16:49.028Z,560
2022-11-24T08:17:49.379Z,499.84
2022-11-24T08:18:49.541Z,499.84
2022-11-24T08:19:49.691Z,449.92
2022-11-24T08:20:49.853Z,449.92
2022-11-24T08:21:50.005Z,400
2022-11-24T08:22:50.162Z,400
2022-11-24T08:23:50.312Z,360
2022-11-24T08:24:50.477Z,320
2022-11-24T08:25:54.220Z,280
2022-11-24T08:26:57.326Z,249.92
2022-11-24T08:27:57.480Z,249.92
2022-11-24T08:28:57.634Z,249.92
2022-11-24T08:29:57.793Z,320
2022-11-24T08:30:57.945Z,400
2022-11-24T08:31:58.222Z,440
2022-11-24T08:32:58.700Z,440
2022-11-24T08:33:58.852Z,389.76
2022-11-24T08:35:08.504Z,389.76
2022-11-24T08:36:14.951Z,360
2022-11-24T08:37:15.106Z,429.76
2022-11-24T08:38:15.262Z,429.76
2022-11-24T08:39:15.413Z,429.76
2022-11-24T08:40:15.564Z,339.84
2022-11-24T08:41:15.716Z,289.92
2022-11-24T08:42:15.888Z,229.92
2022-11-24T08:43:16.051Z,229.92
2022-11-24T08:44:16.210Z,229.92
2022-11-24T08:45:20.726Z,229.92
2022-11-24T08:46:25.875Z,269.92
2022-11-24T08:47:26.323Z,360
2022-11-24T08:48:26.474Z,440
2022-11-24T08:49:26.632Z,560
2022-11-24T08:50:26.786Z,699.52
2022-11-24T08:51:26.964Z,869.76
2022-11-24T08:52:27.174Z,1179.52
2022-11-24T08:53:27.328Z,1459.2
2022-11-24T08:54:27.501Z,1619.2
2022-11-24T08:55:27.668Z,1619.2
2022-11-24T08:56:27.842Z,1619.2
2022-11-24T08:57:28.019Z,1619.2
2022-11-24T08:58:28.177Z,1619.2
2022-11-24T08:59:28.407Z,1619.2
2022-11-24T09:00:28.705Z,1818.88
2022-11-24T09:01:28.985Z,2039.04
2022-11-24T09:02:29.534Z,2039.04
2022-11-24T09:03:29.716Z,2039.04
2022-11-24T09:04:29.966Z,2039.04
2022-11-24T09:05:51.060Z,2039.04
2022-11-24T09:06:53.361Z,1600
2022-11-24T09:07:53.580Z,1280
2022-11-24T09:08:53.906Z,1120
2022-11-24T09:09:54.091Z,999.68
2022-11-24T09:10:54.238Z,999.68
2022-11-24T09:11:54.390Z,999.68
2022-11-24T09:12:54.551Z,1120
2022-11-24T09:13:54.703Z,1259.52
2022-11-24T09:14:54.857Z,1399.04
2022-11-24T09:15:55.012Z,1399.04
2022-11-24T09:16:55.240Z,1399.04
2022-11-24T09:17:55.560Z,1399.04
2022-11-24T09:18:55.773Z,1399.04
2022-11-24T09:19:55.958Z,1399.04
2022-11-24T09:20:56.185Z,1399.04
2022-11-24T09:21:56.364Z,1399.04
2022-11-24T09:22:56.520Z,1539.84
2022-11-24T09:23:56.677Z,1719.04
2022-11-24T09:24:56.833Z,1899.52
2022-11-24T09:25:56.985Z,2119.68
2022-11-24T09:26:57.142Z,2677.76
2022-11-24T09:27:57.310Z,3399.68
2022-11-24T09:28:57.463Z,3840
2022-11-24T09:29:57.618Z,4298.24
2022-11-24T09:30:57.794Z,4298.24
2022-11-24T09:32:02.096Z,4738.56
2022-11-24T09:33:07.327Z,4718.08
2022-11-24T09:34:07.476Z,4718.08
2022-11-24T09:35:07.627Z,4718.08
2022-11-24T09:36:07.782Z,4259.84
2022-11-24T09:37:07.932Z,3819.52
2022-11-24T09:38:08.081Z,3819.52
2022-11-24T09:39:08.237Z,3417.6
2022-11-24T09:40:08.386Z,3417.6
2022-11-24T09:41:08.541Z,3059.2
2022-11-24T09:42:08.711Z,2718.72
2022-11-24T09:43:08.863Z,2718.72
2022-11-24T09:44:09.029Z,3217.92
2022-11-24T09:45:09.182Z,6256.64
2022-11-24T09:46:09.405Z,6256.64
2022-11-24T09:47:09.861Z,6256.64
2022-11-24T09:48:10.019Z,7040
2022-11-24T09:49:10.200Z,9359.36
2022-11-24T09:50:10.375Z,12390.4
2022-11-24T09:51:10.528Z,14991.36
2022-11-24T09:52:10.684Z,10398.72
2022-11-24T09:53:10.853Z,7116.8
2022-11-24T09:54:11.006Z,5555.2
2022-11-24T09:55:11.165Z,4318.72
2022-11-24T09:56:11.323Z,3857.92
2022-11-24T09:57:11.474Z,4559.36
2022-11-24T09:58:11.623Z,4559.36
2022-11-24T09:59:11.781Z,4559.36
2022-11-24T10:00:11.942Z,4559.36
2022-11-24T10:01:12.172Z,4559.36
2022-11-24T10:02:12.492Z,4559.36
2022-11-24T10:03:12.659Z,4078.08
2022-11-24T10:04:12.865Z,3658.24
2022-11-24T10:05:13.249Z,3658.24
2022-11-24T10:06:13.524Z,3658.24
2022-11-24T10:07:13.760Z,3279.36
2022-11-24T10:08:14.027Z,3279.36
2022-11-24T10:09:14.189Z,3678.72
2022-11-24T10:10:15.199Z,4119.04
2022-11-24T10:11:25.297Z,4160
2022-11-24T10:12:25.454Z,3678.72
2022-11-24T10:13:25.616Z,3678.72
2022-11-24T10:14:25.773Z,3299.84
2022-11-24T10:15:25.922Z,2959.36
2022-11-24T10:16:26.131Z,2959.36
2022-11-24T10:17:26.514Z,3338.24
2022-11-24T10:18:26.668Z,4198.4
2022-11-24T10:19:36.238Z,5278.72
2022-11-24T10:20:37.882Z,6635.52
2022-11-24T10:21:38.035Z,8079.36
2022-11-24T10:22:38.195Z,8079.36
2022-11-24T10:23:39.876Z,7157.76
2022-11-24T10:24:40.315Z,6338.56
2022-11-24T10:25:40.507Z,6338.56
2022-11-24T10:26:40.656Z,7075.84
2022-11-24T10:27:40.822Z,8678.4
2022-11-24T10:28:40.975Z,8678.4
2022-11-24T10:29:41.135Z,7756.8
2022-11-24T10:30:41.350Z,7756.8
2022-11-24T10:31:41.652Z,6876.16
2022-11-24T10:32:41.835Z,6097.92
2022-11-24T10:33:42.005Z,6097.92
2022-11-24T10:34:42.180Z,6097.92
2022-11-24T10:35:42.354Z,6097.92
2022-11-24T10:36:42.514Z,5416.96
2022-11-24T10:37:42.686Z,4779.52
2022-11-24T10:38:42.869Z,4779.52
2022-11-24T10:39:43.024Z,4779.52
2022-11-24T10:40:58.772Z,4779.52
2022-11-24T10:41:59.576Z,5975.04
2022-11-24T10:42:59.743Z,6579.2
2022-11-24T10:43:59.894Z,7418.88
2022-11-24T10:45:00.050Z,16394.24
2022-11-24T10:46:00.298Z,12390.4
2022-11-24T10:47:00.712Z,9415.68
2022-11-24T10:48:00.879Z,7398.4
2022-11-24T10:49:01.034Z,7398.4
2022-11-24T10:50:01.198Z,6656
2022-11-24T10:51:01.348Z,6656
2022-11-24T10:52:01.586Z,6656
2022-11-24T10:53:01.800Z,6656
2022-11-24T10:54:02.077Z,6656
2022-11-24T10:55:02.242Z,6656
2022-11-24T10:56:02.434Z,6656
2022-11-24T10:57:02.601Z,6656
2022-11-24T10:58:02.775Z,5939.2
2022-11-24T10:59:02.928Z,5939.2
2022-11-24T11:00:03.088Z,5939.2
2022-11-24T11:01:03.347Z,5939.2
2022-11-24T11:02:04.122Z,5939.2
2022-11-24T11:03:04.847Z,6819.84
2022-11-24T11:04:05.284Z,6118.4
2022-11-24T11:05:05.436Z,6118.4
2022-11-24T11:06:05.591Z,5437.44
2022-11-24T11:07:05.783Z,5437.44
2022-11-24T11:08:06.042Z,5437.44
2022-11-24T11:09:06.374Z,5437.44
2022-11-24T11:10:06.538Z,5437.44
2022-11-24T11:11:06.695Z,5437.44
2022-11-24T11:12:27.973Z,5437.44
2022-11-24T11:13:45.338Z,5376
2022-11-24T11:14:45.487Z,5376
2022-11-24T11:15:45.754Z,5099.52
2022-11-24T11:16:46.306Z,4579.84
2022-11-24T11:17:46.562Z,4119.04
2022-11-24T11:18:46.733Z,3678.72
2022-11-24T11:20:00.235Z,3279.36
2022-11-24T11:21:03.123Z,2918.4
2022-11-24T11:22:03.278Z,2918.4
2022-11-24T11:23:03.434Z,2918.4
2022-11-24T11:24:03.591Z,2618.88
2022-11-24T11:25:03.743Z,2618.88
2022-11-24T11:26:03.893Z,2618.88
2022-11-24T11:27:04.048Z,2618.88
2022-11-24T11:28:08.283Z,2618.88
2022-11-24T11:34:03.187Z,5158.4
2022-11-24T11:35:15.896Z,5795.84
2022-11-24T11:36:16.058Z,5795.84
2022-11-24T11:37:16.235Z,5795.84
2022-11-24T11:38:16.508Z,5795.84
2022-11-24T11:39:16.665Z,5795.84
2022-11-24T11:40:16.822Z,6297.6
2022-11-24T11:41:17.001Z,6297.6
2022-11-24T11:42:31.699Z,6958.08
2022-11-24T11:44:03.608Z,7219.2
2022-11-24T11:45:03.774Z,7219.2
2022-11-24T11:46:04.104Z,7219.2
2022-11-24T11:47:04.763Z,7219.2
2022-11-24T11:48:05.093Z,7659.52
2022-11-24T11:49:05.250Z,7659.52
2022-11-24T11:50:05.413Z,6876.16
2022-11-24T11:51:35.663Z,6159.36
2022-11-24T11:52:36.008Z,5918.72
2022-11-24T11:53:36.165Z,5918.72
2022-11-24T11:54:36.578Z,5918.72
2022-11-24T11:55:37.715Z,5918.72
2022-11-24T11:56:37.889Z,5918.72
2022-11-24T11:57:38.044Z,5918.72
2022-11-24T11:58:38.197Z,5918.72
2022-11-24T11:59:38.364Z,5498.88
2022-11-24T12:00:38.513Z,5498.88
2022-11-24T12:01:38.674Z,5498.88
2022-11-24T12:02:39.009Z,4917.76
2022-11-24T12:03:39.771Z,4917.76
2022-11-24T12:04:40.358Z,4917.76
2022-11-24T12:05:40.517Z,4917.76
2022-11-24T12:06:40.677Z,4917.76
2022-11-24T12:07:40.910Z,6056.96
2022-11-24T12:09:03.632Z,6056.96
2022-11-24T12:10:21.605Z,6896.64
2022-11-24T12:11:21.770Z,6896.64
2022-11-24T12:12:21.932Z,18595.84
2022-11-24T12:13:22.083Z,20797.44
2022-11-24T12:14:22.242Z,26583.04
2022-11-24T12:15:22.393Z,32788.48
2022-11-24T12:16:22.672Z,37580.8
2022-11-24T12:17:23.191Z,28385.28
2022-11-24T12:18:48.928Z,21790.72
2022-11-24T12:19:59.070Z,16394.24
2022-11-24T12:20:59.220Z,10792.96
2022-11-24T12:21:59.378Z,9415.68
2022-11-24T12:22:59.537Z,7418.88
2022-11-24T12:23:59.681Z,7418.88
2022-11-24T12:24:59.855Z,8837.12
2022-11-24T12:26:00.146Z,7736.32
2022-11-24T12:27:00.312Z,6855.68
2022-11-24T12:28:00.468Z,6855.68
2022-11-24T12:29:00.628Z,6855.68
2022-11-24T12:30:00.775Z,7598.08
2022-11-24T12:31:00.944Z,9359.36
2022-11-24T12:32:01.276Z,21196.8
2022-11-24T12:33:01.431Z,23388.16
2022-11-24T12:34:01.743Z,28590.08
2022-11-24T12:35:01.931Z,28590.08
2022-11-24T12:36:02.092Z,22589.44
2022-11-24T12:37:02.247Z,19998.72
2022-11-24T12:38:02.407Z,17397.76
2022-11-24T12:39:02.557Z,15595.52
2022-11-24T12:40:02.711Z,17397.76
2022-11-24T12:41:18.587Z,24391.68
2022-11-24T12:42:42.815Z,26787.84
2022-11-24T12:43:42.975Z,30187.52
2022-11-24T12:44:43.131Z,30187.52
2022-11-24T12:45:43.295Z,30187.52
2022-11-24T12:46:43.525Z,23797.76
2022-11-24T12:47:43.948Z,20797.44
2022-11-24T12:48:44.102Z,13998.08
2022-11-24T12:49:44.268Z,9835.52
2022-11-24T12:50:44.431Z,7536.64
2022-11-24T12:51:44.604Z,6717.44
2022-11-24T12:52:44.754Z,6717.44
2022-11-24T12:53:45.020Z,6717.44
2022-11-24T12:54:45.181Z,5959.68
2022-11-24T12:55:45.356Z,4618.24
2022-11-24T12:56:45.508Z,5178.88
2022-11-24T12:57:45.660Z,5739.52
2022-11-24T12:58:45.822Z,5120
2022-11-24T12:59:45.980Z,5775.36
2022-11-24T13:00:46.133Z,6579.2
2022-11-24T13:01:46.404Z,7736.32
2022-11-24T13:02:47.251Z,9835.52
2022-11-24T13:03:47.937Z,8739.84
2022-11-24T13:04:48.377Z,6855.68
2022-11-24T13:05:48.533Z,7598.08
2022-11-24T13:06:49.509Z,6835.2
2022-11-24T13:07:50.055Z,6819.84
2022-11-24T13:08:50.437Z,6016
2022-11-24T13:09:50.590Z,7736.32
2022-11-24T13:10:58.345Z,8616.96
2022-11-24T13:12:03.383Z,8796.16
2022-11-24T13:13:03.989Z,8698.88
2022-11-24T13:14:04.166Z,8698.88
2022-11-24T13:15:04.322Z,8698.88
2022-11-24T13:16:38.615Z,7715.84
2022-11-24T13:18:28.826Z,7639.04
2022-11-24T13:19:29.114Z,7639.04
2022-11-24T13:20:29.278Z,7639.04
2022-11-24T13:21:29.445Z,7639.04
2022-11-24T13:22:29.603Z,7639.04
2022-11-24T13:23:29.756Z,7639.04
2022-11-24T13:24:29.915Z,7639.04
2022-11-24T13:25:30.090Z,8555.52
2022-11-24T13:26:30.261Z,9635.84
2022-11-24T13:27:30.429Z,10792.96
2022-11-24T13:28:54.310Z,9538.56
2022-11-24T13:30:24.508Z,10792.96
2022-11-24T13:31:24.735Z,11991.04
2022-11-24T13:32:25.228Z,13199.36
2022-11-24T13:33:27.033Z,14592
2022-11-24T13:34:27.471Z,12195.84
2022-11-24T13:35:27.619Z,8458.24
2022-11-24T13:36:27.780Z,6758.4
2022-11-24T13:37:29.065Z,4999.68
2022-11-24T13:38:36.405Z,3438.08
2022-11-24T13:39:40.687Z,2997.76
2022-11-24T13:41:13.187Z,2419.2
2022-11-24T13:42:40.980Z,2159.36
2022-11-24T13:43:44.643Z,2080
2022-11-24T13:44:44.792Z,2080
2022-11-24T13:45:44.979Z,2080
2022-11-24T13:46:45.447Z,2080